Time;durP1;ratioP1;P1;durP2;ratioP2;P2;SDS_P1;SDS_P2;PMS_P1;PMS_P2;Temp;Humidity;BMP_temperature;BMP_pressure;BME280_temperature;BME280_humidity;BME280_pressure;Samples;Min_cycle;Max_cycle;Signal;HPM_P1;HPM_P2
2023/01/24 00:00:54;;;;;;;20.27;12.13;;;;;;;2.51;100.00;99583.25;5030175;28;20213;-77
2023/01/24 00:03:21;;;;;;;17.87;12.97;;;;;;;2.49;100.00;99577.19;5030712;28;20209;-77
2023/01/24 00:05:49;;;;;;;19.47;11.83;;;;;;;2.46;100.00;99582.44;5030754;28;20339;-77
2023/01/24 00:08:19;;;;;;;17.97;11.53;;;;;;;2.46;100.00;99571.16;5030651;28;20212;-77
2023/01/24 00:10:48;;;;;;;20.77;12.83;;;;;;;2.44;100.00;99573.78;5030077;28;20208;-78
2023/01/24 00:13:15;;;;;;;18.93;11.70;;;;;;;2.46;100.00;99566.78;5030787;28;20217;-77
2023/01/24 00:15:42;;;;;;;18.10;12.30;;;;;;;2.48;100.00;99559.81;5030672;28;20312;-78
2023/01/24 00:18:09;;;;;;;18.37;12.20;;;;;;;2.45;100.00;99559.84;5030763;28;20209;-77
2023/01/24 00:20:36;;;;;;;18.93;13.03;;;;;;;2.50;100.00;99552.81;5030227;28;20224;-77
2023/01/24 00:23:02;;;;;;;16.27;10.97;;;;;;;2.55;100.00;99555.34;5030353;28;20316;-78
2023/01/24 00:25:28;;;;;;;19.43;11.70;;;;;;;2.54;100.00;99557.13;5030692;28;20615;-77
2023/01/24 00:27:56;;;;;;;18.57;12.17;;;;;;;2.47;100.00;99567.66;5030769;28;20212;-77
2023/01/24 00:30:23;;;;;;;18.77;11.60;;;;;;;2.46;100.00;99561.56;5033532;28;20220;-77
2023/01/24 00:32:50;;;;;;;18.50;11.77;;;;;;;2.50;100.00;99558.03;5034110;28;20233;-77
2023/01/24 00:35:16;;;;;;;19.73;12.07;;;;;;;2.51;100.00;99569.34;5034063;28;20221;-77
2023/01/24 00:37:43;;;;;;;19.33;12.00;;;;;;;2.43;100.00;99576.41;5033942;28;20230;-77
2023/01/24 00:40:11;;;;;;;18.53;12.40;;;;;;;2.52;100.00;99566.69;5033408;28;20209;-77
2023/01/24 00:42:37;;;;;;;21.47;12.83;;;;;;;2.48;100.00;99575.47;5033906;28;20325;-77
2023/01/24 00:45:06;;;;;;;19.10;11.83;;;;;;;2.47;100.00;99576.38;5033751;28;20710;-78
2023/01/24 00:47:33;;;;;;;20.37;12.03;;;;;;;2.45;100.00;99582.50;5033803;28;20671;-78
2023/01/24 00:49:59;;;;;;;19.97;12.63;;;;;;;2.48;100.00;99585.91;5032931;28;20205;-78
2023/01/24 00:52:26;;;;;;;20.80;12.43;;;;;;;2.56;100.00;99578.81;5033534;28;20232;-78
2023/01/24 00:54:52;;;;;;;18.60;11.63;;;;;;;2.56;100.00;99577.97;5033894;28;20209;-78
2023/01/24 00:57:18;;;;;;;19.23;12.60;;;;;;;2.55;100.00;99566.66;5033692;28;20215;-78
2023/01/24 00:59:45;;;;;;;21.30;12.67;;;;;;;2.48;100.00;99575.47;5032799;28;20208;-77
2023/01/24 01:02:13;;;;;;;18.27;12.43;;;;;;;2.47;100.00;99573.75;5033551;28;20228;-77
2023/01/24 01:04:39;;;;;;;18.10;11.77;;;;;;;2.46;100.00;99571.16;5033424;28;20236;-77
2023/01/24 01:07:06;;;;;;;21.83;13.37;;;;;;;2.57;100.00;99570.09;5033650;28;20212;-77
2023/01/24 01:09:32;;;;;;;20.17;13.33;;;;;;;2.59;100.00;99568.38;5032580;28;20353;-77
2023/01/24 01:11:59;;;;;;;19.33;12.73;;;;;;;2.57;100.00;99570.09;5033333;28;20232;-77
2023/01/24 01:14:25;;;;;;;18.47;12.57;;;;;;;2.53;100.00;99573.66;5033386;28;20204;-77
2023/01/24 01:16:51;;;;;;;20.87;13.33;;;;;;;2.56;100.00;99591.03;5033263;28;20219;-77
2023/01/24 01:19:19;;;;;;;21.63;13.50;;;;;;;2.54;100.00;99588.44;5032410;28;20573;-77
2023/01/24 01:21:46;;;;;;;19.03;12.10;;;;;;;2.55;100.00;99587.53;5033227;28;20244;-77
2023/01/24 01:24:12;;;;;;;22.80;14.10;;;;;;;2.48;100.00;99585.03;5033192;28;20212;-77
2023/01/24 01:26:39;;;;;;;23.27;14.30;;;;;;;2.50;100.00;99583.28;5033083;28;20215;-77
2023/01/24 01:29:05;;;;;;;22.53;14.20;;;;;;;2.48;100.00;99580.69;5032307;28;20205;-77
2023/01/24 01:31:32;;;;;;;22.43;13.83;;;;;;;2.54;100.00;99577.13;5032863;28;20231;-77
2023/01/24 01:33:58;;;;;;;20.00;13.27;;;;;;;2.50;100.00;99578.91;5032923;28;20211;-77
2023/01/24 01:36:26;;;;;;;21.90;13.83;;;;;;;2.44;100.00;99578.16;5032813;28;20667;-77
2023/01/24 01:38:53;;;;;;;20.73;13.90;;;;;;;2.46;100.00;99592.88;5032458;28;20205;-77
2023/01/24 01:41:19;;;;;;;21.27;13.47;;;;;;;2.47;100.00;99584.19;5032768;28;20262;-77
2023/01/24 01:46:29;;;;;;;21.57;13.43;;;;;;;2.48;100.00;99593.75;5031584;28;20246;-77
2023/01/24 01:49:01;;;;;;;22.70;13.93;;;;;;;2.45;100.00;99600.75;5032133;28;20212;-77
2023/01/24 01:51:33;;;;;;;20.93;13.07;;;;;;;2.41;100.00;99605.16;5032531;28;20237;-77
2023/01/24 01:54:03;;;;;;;21.03;13.03;;;;;;;2.42;100.00;99599.03;5032714;28;20255;-77
2023/01/24 01:56:34;;;;;;;22.20;13.60;;;;;;;2.41;100.00;99599.94;5032549;28;20212;-77
2023/01/24 01:59:04;;;;;;;21.87;13.67;;;;;;;2.43;100.00;99602.50;5031122;28;20306;-76
2023/01/24 02:01:31;;;;;;;22.50;13.33;;;;;;;2.34;100.00;99594.81;5032433;28;20228;-77
2023/01/24 02:04:06;;;;;;;21.67;13.63;;;;;;;2.39;100.00;99591.25;5032556;28;20237;-77
2023/01/24 02:06:51;;;;;;;21.50;12.67;;;;;;;2.43;100.00;99598.16;5032366;28;20231;-77
2023/01/24 02:09:20;;;;;;;20.70;13.37;;;;;;;2.39;100.00;99601.69;5031464;28;20208;-77
2023/01/24 02:11:48;;;;;;;18.77;12.47;;;;;;;2.33;100.00;99601.75;5032408;28;20233;-77
2023/01/24 02:17:03;;;;;;;21.77;13.20;;;;;;;2.39;100.00;99606.91;5032273;28;20236;-76
2023/01/24 02:19:53;;;;;;;20.37;13.03;;;;;;;2.41;100.00;99599.06;5031297;28;20212;-77
2023/01/24 02:22:28;;;;;;;22.57;13.30;;;;;;;2.40;100.00;99599.94;5032108;28;20228;-77
2023/01/24 02:25:04;;;;;;;20.97;13.33;;;;;;;2.35;100.00;99626.09;5032112;28;20254;-77
2023/01/24 02:27:32;;;;;;;21.63;12.30;;;;;;;2.31;100.00;99618.31;5032064;28;20219;-77
2023/01/24 02:29:59;;;;;;;24.07;13.87;;;;;;;2.32;100.00;99626.13;5030839;28;20208;-77
2023/01/24 02:32:26;;;;;;;20.83;13.10;;;;;;;2.27;100.00;99627.09;5032050;28;20229;-77
2023/01/24 02:34:53;;;;;;;19.30;12.93;;;;;;;2.29;100.00;99625.31;5032027;28;20364;-76
2023/01/24 02:37:20;;;;;;;23.97;14.10;;;;;;;2.43;100.00;99616.44;5031992;28;20208;-77
2023/01/24 02:39:51;;;;;;;21.87;13.50;;;;;;;2.49;100.00;99607.63;5031184;28;20209;-76
2023/01/24 02:42:22;;;;;;;22.50;13.27;;;;;;;2.59;100.00;99622.28;5031656;28;20332;-77
2023/01/24 02:44:58;;;;;;;20.23;12.50;;;;;;;2.50;100.00;99628.50;5031592;28;20212;-77
2023/01/24 02:47:32;;;;;;;21.00;13.13;;;;;;;2.44;100.00;99620.75;5031979;28;20208;-77
2023/01/24 02:49:58;;;;;;;22.87;13.60;;;;;;;2.37;100.00;99636.50;5031058;28;20264;-77
2023/01/24 02:55:06;;;;;;;22.27;13.80;;;;;;;2.50;100.00;99625.88;4998191;28;20219;-77
2023/01/24 03:00:19;;;;;;;20.67;12.57;;;;;;;2.52;100.00;99631.09;5030919;28;20223;-76
2023/01/24 03:02:45;;;;;;;19.43;12.67;;;;;;;2.48;100.00;99630.28;5031348;28;20237;-77
2023/01/24 03:05:12;;;;;;;21.63;12.80;;;;;;;2.51;100.00;99629.38;5031156;28;20236;-77
2023/01/24 03:07:43;;;;;;;22.27;13.10;;;;;;;2.53;100.00;99635.44;5031216;28;20695;-77
2023/01/24 03:10:10;;;;;;;21.83;12.77;;;;;;;2.53;100.00;99627.59;5030753;28;20220;-77
2023/01/24 03:34:32;;;;;;;23.40;13.43;;;;;;;2.52;100.00;99631.94;5031034;28;20701;-77
2023/01/24 03:36:59;;;;;;;19.90;12.33;;;;;;;2.53;100.00;99625.88;5031228;28;20205;-77
2023/01/24 03:42:09;;;;;;;20.20;11.97;;;;;;;2.52;100.00;99625.88;5030921;28;20286;-77
2023/01/24 03:44:36;;;;;;;22.70;13.43;;;;;;;2.49;100.00;99629.38;5031004;28;20220;-77
2023/01/24 03:47:04;;;;;;;20.23;12.33;;;;;;;2.49;100.00;99633.72;5030866;28;20236;-77
2023/01/24 03:52:28;;;;;;;21.33;12.73;;;;;;;2.55;100.00;99634.53;5030668;28;20235;-76
2023/01/24 03:54:55;;;;;;;20.10;13.03;;;;;;;2.57;100.00;99632.75;5031141;28;20212;-77
2023/01/24 03:57:22;;;;;;;20.23;12.60;;;;;;;2.50;100.00;99636.31;5031000;28;20220;-77
2023/01/24 03:59:48;;;;;;;20.87;13.03;;;;;;;2.51;100.00;99632.81;5030047;28;20209;-76
2023/01/24 04:02:17;;;;;;;22.97;13.07;;;;;;;2.56;100.00;99632.78;5030719;28;20232;-77
2023/01/24 04:07:29;;;;;;;21.37;13.17;;;;;;;2.46;100.00;99633.78;5034698;28;20204;-77
2023/01/24 04:09:57;;;;;;;21.23;13.13;;;;;;;2.50;100.00;99635.47;5033801;28;20214;-77
2023/01/24 04:12:24;;;;;;;20.13;13.10;;;;;;;2.49;100.00;99638.94;5034332;28;20235;-77
2023/01/24 04:14:50;;;;;;;21.50;13.20;;;;;;;2.45;100.00;99637.28;5034644;28;20216;-76
2023/01/24 04:17:18;;;;;;;21.23;13.20;;;;;;;2.45;100.00;99627.69;5034564;28;20200;-77
2023/01/24 04:19:45;;;;;;;25.20;14.23;;;;;;;2.53;100.00;99636.31;5033659;28;20209;-77
2023/01/24 04:22:11;;;;;;;22.47;14.07;;;;;;;2.54;100.00;99626.72;5034339;28;20233;-76
2023/01/24 04:24:38;;;;;;;20.47;13.10;;;;;;;2.46;100.00;99626.81;5034272;28;20240;-77
2023/01/24 04:27:04;;;;;;;21.97;13.37;;;;;;;2.46;100.00;99628.56;5034296;28;20236;-76
2023/01/24 04:29:31;;;;;;;23.67;13.77;;;;;;;2.37;100.00;99628.66;5033671;28;20212;-77
2023/01/24 04:31:57;;;;;;;23.53;13.93;;;;;;;2.39;100.00;99633.00;5034184;28;20228;-77
2023/01/24 04:34:25;;;;;;;20.90;12.80;;;;;;;2.42;100.00;99621.66;5034133;28;20212;-77
2023/01/24 04:36:52;;;;;;;25.20;14.23;;;;;;;2.46;100.00;99624.19;5034059;28;20698;-77
2023/01/24 04:39:18;;;;;;;22.27;12.80;;;;;;;2.47;100.00;99625.94;5033173;28;20212;-77
2023/01/24 04:41:45;;;;;;;23.57;13.47;;;;;;;2.49;100.00;99629.38;5047532;23;20880;-79
2023/01/24 04:44:11;;;;;;;24.53;13.77;;;;;;;2.38;100.00;99635.63;5034501;28;20590;-79
2023/01/24 04:46:38;;;;;;;24.80;13.80;;;;;;;2.35;100.00;99638.28;5034238;28;20229;-78
2023/01/24 04:49:04;;;;;;;21.50;13.33;;;;;;;2.41;100.00;99635.59;5033664;28;20223;-79
2023/01/24 04:51:32;;;;;;;22.10;13.03;;;;;;;2.39;100.00;99642.59;5034541;28;20229;-81
2023/01/24 04:53:58;;;;;;;23.10;13.80;;;;;;;2.40;100.00;99639.94;5034787;28;20629;-80
2023/01/24 04:56:25;;;;;;;24.83;14.07;;;;;;;2.36;100.00;99640.88;5035057;28;20212;-79
2023/01/24 04:58:51;;;;;;;23.27;14.13;;;;;;;2.41;100.00;99641.69;5033967;28;20204;-79
2023/01/24 05:01:18;;;;;;;26.63;15.27;;;;;;;2.41;100.00;99646.03;5034468;28;20240;-78
2023/01/24 05:03:44;;;;;;;25.20;15.17;;;;;;;2.38;100.00;99648.69;5034452;28;20213;-80
2023/01/24 05:06:11;;;;;;;25.83;14.10;;;;;;;2.39;100.00;99648.66;5034275;28;20237;-78
2023/01/24 05:08:38;;;;;;;27.10;15.13;;;;;;;2.38;100.00;99652.16;5034707;28;20217;-78
2023/01/24 05:11:05;;;;;;;25.50;14.83;;;;;;;2.33;100.00;99648.72;5033756;28;20204;-79
2023/01/24 05:13:32;;;;;;;23.40;14.10;;;;;;;2.29;100.00;99657.50;5034069;28;20213;-79
2023/01/24 05:15:58;;;;;;;23.67;14.43;;;;;;;2.28;100.00;99660.09;5034154;28;20208;-79
2023/01/24 05:18:25;;;;;;;27.10;14.87;;;;;;;2.33;100.00;99661.75;5034024;28;20221;-79
2023/01/24 05:20:51;;;;;;;23.47;14.83;;;;;;;2.33;100.00;99656.56;5033386;28;20212;-78
2023/01/24 05:23:18;;;;;;;24.20;13.77;;;;;;;2.31;100.00;99660.06;5034492;28;20346;-79
2023/01/24 05:25:46;;;;;;;22.43;13.60;;;;;;;2.30;100.00;99654.00;5034056;28;20228;-79
2023/01/24 05:28:12;;;;;;;26.73;15.83;;;;;;;2.33;100.00;99668.75;5034078;28;20220;-79
2023/01/24 05:30:38;;;;;;;25.77;15.10;;;;;;;2.26;100.00;99665.34;5033391;28;20220;-79
2023/01/24 05:33:05;;;;;;;27.20;15.33;;;;;;;2.27;100.00;99679.25;5033757;28;20251;-79
2023/01/24 05:35:31;;;;;;;24.97;15.20;;;;;;;2.26;100.00;99675.78;5033890;28;20208;-79
2023/01/24 05:37:58;;;;;;;25.30;14.73;;;;;;;2.34;100.00;99671.31;5033725;28;20209;-79
2023/01/24 05:40:24;;;;;;;25.03;14.17;;;;;;;2.32;100.00;99680.06;5032917;28;20212;-79
2023/01/24 05:42:52;;;;;;;25.00;14.57;;;;;;;2.29;100.00;99682.69;5033536;28;20252;-78
2023/01/24 05:45:19;;;;;;;25.83;14.23;;;;;;;2.29;100.00;99680.97;5034224;28;20589;-79
2023/01/24 05:47:45;;;;;;;25.53;14.50;;;;;;;2.30;100.00;99687.91;5033752;28;20256;-79
2023/01/24 05:50:12;;;;;;;28.17;16.07;;;;;;;2.32;100.00;99683.53;5032990;28;20213;-78
2023/01/24 05:52:38;;;;;;;24.63;13.83;;;;;;;2.35;100.00;99693.06;5033399;28;20242;-79
2023/01/24 05:55:05;;;;;;;25.53;14.53;;;;;;;2.37;100.00;99684.34;5033151;28;20672;-79
2023/01/24 05:57:33;;;;;;;24.27;13.87;;;;;;;2.34;100.00;99683.50;5033414;28;20603;-79
2023/01/24 06:00:01;;;;;;;23.03;14.37;;;;;;;2.34;100.00;99686.13;5032985;28;20213;-79
2023/01/24 06:02:28;;;;;;;24.40;14.90;;;;;;;2.34;100.00;99691.34;5033804;28;20671;-79
2023/01/24 06:04:54;;;;;;;24.87;15.07;;;;;;;2.29;100.00;99688.78;5033515;28;20208;-79
2023/01/24 06:07:21;;;;;;;26.90;15.00;;;;;;;2.30;100.00;99690.50;5033195;28;20225;-79
2023/01/24 06:09:47;;;;;;;25.70;14.80;;;;;;;2.21;100.00;99690.59;5032452;28;20216;-79
2023/01/24 06:12:14;;;;;;;23.87;14.30;;;;;;;2.24;100.00;99695.81;5033269;28;20703;-79
2023/01/24 06:14:40;;;;;;;26.00;15.30;;;;;;;2.26;100.00;99704.47;5033174;28;20215;-79
2023/01/24 06:17:08;;;;;;;25.00;14.67;;;;;;;2.33;100.00;99700.91;5032872;28;20219;-79
2023/01/24 06:19:35;;;;;;;25.27;15.13;;;;;;;2.36;100.00;99695.66;5032649;28;20590;-79
2023/01/24 06:22:10;;;;;;;26.50;15.73;;;;;;;2.36;100.00;99693.06;5032665;28;20715;-79
2023/01/24 06:24:36;;;;;;;23.43;13.83;;;;;;;2.35;100.00;99696.56;5033017;28;20578;-79
2023/01/24 06:27:03;;;;;;;24.63;13.63;;;;;;;2.37;100.00;99702.59;5032194;28;20228;-79
2023/01/24 06:29:30;;;;;;;23.70;13.57;;;;;;;2.44;100.00;99701.63;5032191;28;20242;-79
2023/01/24 06:32:09;;;;;;;25.63;14.60;;;;;;;2.39;100.00;99703.44;5032885;28;20232;-79
2023/01/24 06:34:55;;;;;;;24.30;14.77;;;;;;;2.39;100.00;99708.66;5032742;28;20201;-79
2023/01/24 06:37:28;;;;;;;28.33;15.27;;;;;;;2.41;100.00;99709.53;5032802;28;20204;-80
2023/01/24 06:39:55;;;;;;;20.67;13.67;;;;;;;2.40;100.00;99709.53;5031581;28;20208;-79
2023/01/24 06:42:23;;;;;;;25.67;14.60;;;;;;;2.40;100.00;99707.75;5031637;28;20252;-79
2023/01/24 06:44:50;;;;;;;24.27;14.80;;;;;;;2.42;100.00;99710.38;5031654;28;20698;-79
2023/01/24 06:47:17;;;;;;;24.37;14.33;;;;;;;2.36;100.00;99720.88;5031598;28;20240;-79
2023/01/24 06:49:44;;;;;;;27.50;15.43;;;;;;;2.45;100.00;99729.47;5031024;28;20211;-79
2023/01/24 06:52:12;;;;;;;24.17;14.80;;;;;;;2.49;100.00;99725.94;5031691;28;20596;-79
2023/01/24 06:54:38;;;;;;;22.50;13.53;;;;;;;2.41;100.00;99727.78;5031634;28;20220;-79
2023/01/24 06:57:05;;;;;;;25.03;13.77;;;;;;;2.44;100.00;99730.34;5032014;28;20599;-80
2023/01/24 06:59:31;;;;;;;24.73;13.87;;;;;;;2.49;100.00;99717.22;5031043;28;20231;-79
2023/01/24 07:01:58;;;;;;;24.27;13.83;;;;;;;2.48;100.00;99725.94;5031679;28;20232;-79
2023/01/24 07:04:24;;;;;;;25.97;15.40;;;;;;;2.42;100.00;99729.50;5031647;28;20209;-79
2023/01/24 07:06:53;;;;;;;23.57;13.90;;;;;;;2.45;100.00;99732.06;5031522;28;20228;-79
2023/01/24 07:09:19;;;;;;;22.87;13.77;;;;;;;2.44;100.00;99734.72;5030708;28;20208;-79
2023/01/24 07:11:47;;;;;;;24.93;14.63;;;;;;;2.44;100.00;99732.94;5031365;28;20236;-79
2023/01/24 07:14:14;;;;;;;22.93;13.93;;;;;;;2.38;100.00;99734.78;5031669;28;20235;-79
2023/01/24 07:16:40;;;;;;;23.87;14.37;;;;;;;2.44;100.00;99737.31;5031772;28;20205;-79
2023/01/24 07:19:11;;;;;;;24.50;14.23;;;;;;;2.47;100.00;99739.88;5031056;28;20219;-79
2023/01/24 07:21:40;;;;;;;24.67;14.00;;;;;;;2.41;100.00;99743.44;5031238;28;20239;-79
2023/01/24 07:24:13;;;;;;;24.67;14.10;;;;;;;2.44;100.00;99740.78;5031792;28;20215;-79
2023/01/24 07:26:40;;;;;;;25.33;13.27;;;;;;;2.45;100.00;99747.72;5031575;28;20235;-79
2023/01/24 07:29:06;;;;;;;23.30;14.17;;;;;;;2.49;100.00;99749.44;5030929;28;20581;-79
2023/01/24 07:31:33;;;;;;;21.67;13.20;;;;;;;2.42;100.00;99758.22;5031340;28;20249;-79
2023/01/24 07:34:00;;;;;;;24.30;14.03;;;;;;;2.48;100.00;99749.44;5031343;28;20231;-78
2023/01/24 07:36:27;;;;;;;26.20;14.40;;;;;;;2.44;100.00;99755.59;5031442;28;20295;-79
2023/01/24 07:38:54;;;;;;;24.57;13.43;;;;;;;2.49;100.00;99749.44;5034523;28;20212;-79
2023/01/24 07:41:22;;;;;;;26.33;14.80;;;;;;;2.50;100.00;99745.94;5035400;28;20235;-79
2023/01/24 07:43:49;;;;;;;24.97;13.10;;;;;;;2.53;100.00;99751.13;5035358;28;20678;-79
2023/01/24 07:46:16;;;;;;;24.40;13.97;;;;;;;2.51;100.00;99752.88;5036023;28;20215;-79
2023/01/24 07:48:42;;;;;;;26.97;14.27;;;;;;;2.52;100.00;99758.97;5035000;28;20244;-79
2023/01/24 07:51:09;;;;;;;24.50;13.67;;;;;;;2.50;100.00;99766.81;5035128;28;20197;-75
2023/01/24 07:53:36;;;;;;;25.20;14.67;;;;;;;2.50;100.00;99769.41;5035316;28;20256;-78
2023/01/24 07:56:03;;;;;;;24.27;13.43;;;;;;;2.55;100.00;99770.25;5035588;28;20212;-80
2023/01/24 07:58:31;;;;;;;24.63;14.60;;;;;;;2.54;100.00;99772.84;5035027;28;20201;-85
2023/01/24 08:00:59;;;;;;;26.53;14.20;;;;;;;2.56;100.00;99777.19;5034646;28;20583;-89
2023/01/24 08:03:25;;;;;;;22.67;12.93;;;;;;;2.56;100.00;99771.97;5035059;28;20737;-80
2023/01/24 08:05:52;;;;;;;25.30;14.30;;;;;;;2.55;100.00;99778.06;5035576;28;20219;-80
2023/01/24 08:08:18;;;;;;;24.67;14.80;;;;;;;2.57;100.00;99780.66;5035100;28;20237;-80
2023/01/24 08:10:44;;;;;;;25.73;15.68;;;;;;;2.61;100.00;99779.72;5034484;28;20468;-82
2023/01/24 08:13:11;;;;;;;27.80;15.20;;;;;;;2.60;100.00;99784.09;5035140;28;20229;-80
2023/01/24 08:15:39;;;;;;;25.40;13.87;;;;;;;2.59;100.00;99790.22;5035320;28;20655;-79
2023/01/24 08:18:05;;;;;;;23.00;14.30;;;;;;;2.62;100.00;99782.31;5035343;28;20201;-79
2023/01/24 08:20:32;;;;;;;25.80;14.20;;;;;;;2.64;100.00;99793.59;5034259;28;20667;-79
2023/01/24 08:22:59;;;;;;;22.70;13.10;;;;;;;2.66;100.00;99798.81;5035177;28;20232;-78
2023/01/24 08:25:26;;;;;;;21.67;13.63;;;;;;;2.71;100.00;99792.69;5035103;28;20216;-79
2023/01/24 08:27:53;;;;;;;24.43;14.43;;;;;;;2.70;100.00;99790.91;5034824;28;20232;-77
2023/01/24 08:30:20;;;;;;;21.27;13.37;;;;;;;2.72;100.00;99797.00;5032437;28;20216;-81
2023/01/24 08:32:47;;;;;;;22.97;13.20;;;;;;;2.67;100.00;99792.72;5032070;28;20576;-78
2023/01/24 08:35:14;;;;;;;20.80;12.73;;;;;;;2.68;100.00;99800.53;5034767;28;20212;-80
2023/01/24 08:37:40;;;;;;;25.70;14.00;;;;;;;2.67;100.00;99806.63;5033590;28;20208;-80
2023/01/24 08:40:09;;;;;;;23.13;14.20;;;;;;;2.70;100.00;99811.81;5034074;28;20212;-79
2023/01/24 08:42:36;;;;;;;23.53;14.10;;;;;;;2.73;100.00;99809.19;5034335;28;20263;-79
2023/01/24 08:45:03;;;;;;;24.07;14.13;;;;;;;2.81;100.00;99809.94;5034542;28;20578;-80
2023/01/24 08:47:29;;;;;;;23.20;13.33;;;;;;;2.81;100.00;99812.56;5035062;28;20228;-80
2023/01/24 08:49:57;;;;;;;23.00;13.73;;;;;;;2.79;100.00;99811.72;5033096;28;20684;-80
2023/01/24 08:52:24;;;;;;;20.10;12.80;;;;;;;2.75;100.00;99810.00;5034624;28;20229;-79
2023/01/24 08:54:50;;;;;;;21.93;13.70;;;;;;;2.81;100.00;99809.94;5034837;28;20212;-79
2023/01/24 08:57:17;;;;;;;21.77;12.90;;;;;;;2.81;100.00;99817.78;5034069;28;20209;-79
2023/01/24 08:59:43;;;;;;;20.57;12.53;;;;;;;2.82;100.00;99821.25;5033260;28;20670;-79
2023/01/24 09:02:13;;;;;;;20.63;13.63;;;;;;;2.79;100.00;99816.94;5033879;28;20237;-79
2023/01/24 09:04:42;;;;;;;22.57;13.03;;;;;;;2.81;100.00;99824.75;5034359;28;20213;-80
2023/01/24 09:07:10;;;;;;;22.03;13.20;;;;;;;2.87;100.00;99829.91;5033599;28;20287;-81
2023/01/24 09:09:37;;;;;;;22.80;13.00;;;;;;;2.83;100.00;99825.59;5032797;28;20219;-78
2023/01/24 09:12:03;;;;;;;24.27;13.10;;;;;;;2.80;100.00;99826.50;5033423;28;20594;-79
2023/01/24 09:14:30;;;;;;;21.20;11.90;;;;;;;2.83;100.00;99817.78;5033500;28;20644;-78
2023/01/24 09:16:57;;;;;;;19.50;12.30;;;;;;;2.87;100.00;99817.69;5033626;28;20607;-78
2023/01/24 09:19:26;;;;;;;20.00;11.43;;;;;;;2.85;100.00;99829.03;5032869;28;20221;-78
2023/01/24 09:21:56;;;;;;;17.70;11.70;;;;;;;2.81;100.00;99830.81;5033371;28;20236;-78
2023/01/24 09:24:24;;;;;;;16.47;11.13;;;;;;;2.80;100.00;99823.88;5033316;28;20217;-78
2023/01/24 09:26:51;;;;;;;20.33;11.67;;;;;;;2.79;100.00;99830.00;5033048;28;20587;-78
2023/01/24 09:29:17;;;;;;;21.07;12.20;;;;;;;2.79;100.00;99832.59;5032419;28;20668;-78
2023/01/24 09:31:44;;;;;;;19.03;11.50;;;;;;;2.80;100.00;99833.44;5033323;28;20233;-80
2023/01/24 09:34:10;;;;;;;18.30;11.33;;;;;;;2.82;100.00;99836.94;5033716;28;20284;-77
2023/01/24 09:36:37;;;;;;;18.03;11.10;;;;;;;2.86;100.00;99836.88;5033378;28;20232;-77
2023/01/24 09:39:03;;;;;;;16.50;10.80;;;;;;;2.80;100.00;99839.56;5032472;28;20216;-78
2023/01/24 09:41:45;;;;;;;16.80;10.90;;;;;;;2.93;100.00;99843.75;5032987;28;20718;-77
2023/01/24 09:44:22;;;;;;;17.30;10.50;;;;;;;2.96;100.00;99841.13;5033332;28;20208;-77
2023/01/24 09:46:52;;;;;;;16.77;9.67;;;;;;;2.92;100.00;99842.03;5032887;28;20223;-78
2023/01/24 09:49:23;;;;;;;19.07;11.63;;;;;;;2.92;100.00;99844.63;5032065;28;20224;-77
2023/01/24 09:51:52;;;;;;;18.27;10.83;;;;;;;2.94;100.00;99847.22;5032630;28;20283;-78
2023/01/24 09:54:28;;;;;;;16.57;10.77;;;;;;;3.00;100.00;99842.78;5032845;28;20213;-78
2023/01/24 09:56:57;;;;;;;17.73;11.47;;;;;;;3.11;100.00;99848.75;5032875;28;20223;-78
2023/01/24 09:59:36;;;;;;;16.23;10.50;;;;;;;3.13;100.00;99833.06;5031887;28;20214;-78
2023/01/24 10:02:14;;;;;;;15.33;10.30;;;;;;;3.14;100.00;99840.88;5031091;28;20235;-79
2023/01/24 10:04:41;;;;;;;17.43;11.50;;;;;;;3.14;100.00;99840.88;5032675;28;20215;-79
2023/01/24 10:07:29;;;;;;;16.17;10.17;;;;;;;3.17;100.00;99843.44;5032369;28;20671;-79
2023/01/24 10:10:12;;;;;;;17.77;10.37;;;;;;;3.16;100.00;99839.09;5031825;28;20278;-79
2023/01/24 10:12:48;;;;;;;16.07;10.07;;;;;;;3.21;100.00;99842.53;5032322;28;20598;-79
2023/01/24 10:15:31;;;;;;;15.53;9.63;;;;;;;3.14;100.00;99834.78;5032196;28;20704;-79
2023/01/24 10:18:25;;;;;;;17.87;10.73;;;;;;;3.25;100.00;99833.75;5031798;28;20205;-79
2023/01/24 10:21:01;;;;;;;16.10;10.00;;;;;;;3.29;100.00;99830.22;5031124;28;20214;-79
2023/01/24 10:23:32;;;;;;;15.20;9.47;;;;;;;3.22;100.00;99832.94;5032352;28;20232;-79
2023/01/24 10:26:04;;;;;;;16.30;10.23;;;;;;;3.32;100.00;99827.59;5032099;28;20205;-78
2023/01/24 10:28:37;;;;;;;16.37;10.27;;;;;;;3.34;100.00;99822.31;5031867;28;20260;-78
2023/01/24 10:31:09;;;;;;;16.53;9.43;;;;;;;3.26;100.00;99824.19;5031428;28;20215;-76
2023/01/24 10:33:45;;;;;;;17.23;10.10;;;;;;;3.26;100.00;99825.06;5031915;28;20300;-76
2023/01/24 10:36:16;;;;;;;13.47;9.23;;;;;;;3.22;100.00;99823.34;5032066;28;20214;-81
2023/01/24 10:38:43;;;;;;;16.47;10.00;;;;;;;3.29;100.00;99819.78;5031625;28;20224;-78
2023/01/24 10:41:22;;;;;;;15.60;10.13;;;;;;;3.26;100.00;99814.59;5031358;28;20267;-78
2023/01/24 10:44:02;;;;;;;15.37;9.63;;;;;;;3.37;100.00;99823.13;5028078;22;20241;-77
2023/01/24 10:46:55;;;;;;;16.00;10.27;;;;;;;3.37;100.00;99820.50;5012033;28;20209;-76
2023/01/24 10:49:24;;;;;;;15.70;9.80;;;;;;;3.32;100.00;99819.75;5011048;28;20229;-76
2023/01/24 10:52:15;;;;;;;14.70;9.60;;;;;;;3.36;100.00;99824.03;5011721;28;20238;-78
2023/01/24 10:54:44;;;;;;;15.67;10.27;;;;;;;3.37;100.00;99817.91;5011745;28;20213;-77
2023/01/24 10:57:36;;;;;;;14.17;9.57;;;;;;;3.40;100.00;99819.63;5011829;28;20309;-78
2023/01/24 11:00:19;;;;;;;14.77;9.37;;;;;;;3.46;100.00;99809.06;5011058;28;20216;-78
2023/01/24 11:02:49;;;;;;;16.13;9.80;;;;;;;3.42;100.00;99810.88;5011684;28;20241;-78
2023/01/24 11:05:15;;;;;;;15.27;9.63;;;;;;;3.49;100.00;99802.06;5011734;28;20256;-78
2023/01/24 11:07:46;;;;;;;15.83;9.83;;;;;;;3.46;100.00;99796.00;5011549;28;20229;-78
2023/01/24 11:10:21;;;;;;;12.83;8.73;;;;;;;3.45;100.00;99800.38;5010969;28;20213;-78
2023/01/24 11:12:49;;;;;;;13.53;8.70;;;;;;;3.53;100.00;99805.47;5011279;28;20239;-79
2023/01/24 11:15:21;;;;;;;17.63;10.60;;;;;;;3.49;100.00;99806.44;5011476;28;20267;-79
2023/01/24 11:17:54;;;;;;;18.37;9.97;;;;;;;3.48;100.00;99795.09;5011767;28;20209;-83
2023/01/24 11:20:27;;;;;;;13.20;9.87;;;;;;;3.56;100.00;99793.22;5010990;28;20629;-78
2023/01/24 11:23:04;;;;;;;13.57;8.80;;;;;;;3.52;100.00;99796.78;5011299;28;20331;-77
2023/01/24 11:25:30;;;;;;;14.83;9.10;;;;;;;3.54;100.00;99810.69;5011309;28;20212;-77
2023/01/24 11:27:59;;;;;;;14.13;9.53;;;;;;;3.57;100.00;99794.97;5011515;28;20650;-76
2023/01/24 11:30:28;;;;;;;14.93;8.50;;;;;;;3.58;100.00;99793.22;5010728;28;20304;-77
2023/01/24 11:33:09;;;;;;;12.50;8.87;;;;;;;3.62;100.00;99793.13;5011234;28;20646;-79
2023/01/24 11:35:38;;;;;;;14.60;8.50;;;;;;;3.62;100.00;99787.06;5011312;28;20208;-76
2023/01/24 11:38:18;;;;;;;15.77;9.53;;;;;;;3.59;100.00;99793.19;5011179;28;20208;-76
2023/01/24 11:41:02;;;;;;;14.17;9.20;;;;;;;3.56;100.00;99793.22;5010475;28;20208;-78
2023/01/24 11:43:43;;;;;;;13.27;9.40;;;;;;;3.56;100.00;99797.59;5011210;28;20249;-77
2023/01/24 11:46:26;;;;;;;13.80;9.50;;;;;;;3.54;100.00;99787.16;5011073;28;20205;-77
2023/01/24 11:48:56;;;;;;;12.77;8.87;;;;;;;3.60;100.00;99791.47;5010703;28;20236;-77
2023/01/24 11:51:37;;;;;;;14.90;8.83;;;;;;;3.67;100.00;99786.09;5010979;28;20212;-79
2023/01/24 11:54:27;;;;;;;13.27;8.87;;;;;;;3.69;100.00;99779.09;5011328;28;20212;-78
2023/01/24 11:57:01;;;;;;;15.27;8.87;;;;;;;3.78;100.00;99780.72;5011239;28;20208;-78
2023/01/24 11:59:52;;;;;;;13.43;8.63;;;;;;;3.75;100.00;99771.16;5010394;28;20675;-78
2023/01/24 12:02:41;;;;;;;13.20;8.40;;;;;;;3.80;100.00;99771.91;5011232;28;20232;-78
2023/01/24 12:05:36;;;;;;;13.83;8.53;;;;;;;3.85;100.00;99770.09;5010987;28;20220;-76
2023/01/24 12:08:19;;;;;;;13.23;9.10;;;;;;;3.84;100.00;99762.31;5011042;28;20260;-77
2023/01/24 12:10:57;;;;;;;11.40;7.93;;;;;;;3.88;100.00;99759.59;5010182;28;20213;-80